Time;durP1;ratioP1;P1;durP2;ratioP2;P2;SDS_P1;SDS_P2;PMS_P1;PMS_P2;Temp;Humidity;BMP_temperature;BMP_pressure;BME280_temperature;BME280_humidity;BME280_pressure;Samples;Min_cycle;Max_cycle;Signal;HPM_P1;HPM_P2
2021/12/26 00:02:06;;;;;;;34.90;16.75;;;5.20;99.90;;;;;;20733602;28;20496;-76
2021/12/26 00:12:08;;;;;;;38.35;15.98;;;5.20;99.90;;;;;;20706207;28;20030;-76
2021/12/26 00:22:09;;;;;;;37.28;15.20;;;5.20;99.90;;;;;;20723648;28;20448;-77
2021/12/26 00:32:10;;;;;;;39.00;15.00;;;5.10;99.90;;;;;;20755897;28;20087;-76
2021/12/26 00:42:11;;;;;;;39.40;17.58;;;5.10;99.90;;;;;;20723345;28;20284;-76
2021/12/26 00:52:12;;;;;;;29.13;13.57;;;5.10;99.90;;;;;;20803774;28;20095;-76
2021/12/26 01:02:14;;;;;;;34.15;14.60;;;5.10;99.90;;;;;;20758745;28;20034;-76
2021/12/26 01:12:16;;;;;;;35.22;13.88;;;5.00;99.90;;;;;;20666463;28;20101;-76
2021/12/26 01:22:23;;;;;;;30.48;13.75;;;5.10;99.90;;;;;;20697595;28;20039;-76
2021/12/26 01:32:34;;;;;;;31.65;13.90;;;5.00;99.90;;;;;;20682675;28;20579;-77
2021/12/26 01:42:54;;;;;;;18.30;8.10;;;5.10;99.90;;;;;;20718107;28;20038;-77
2021/12/26 01:53:36;;;;;;;13.38;7.35;;;5.00;99.90;;;;;;20703671;28;20049;-77
2021/12/26 02:03:39;;;;;;;24.13;11.57;;;5.00;99.90;;;;;;20684507;28;20384;-78
2021/12/26 02:13:40;;;;;;;42.42;17.13;;;5.00;99.90;;;;;;20669068;28;20401;-77
2021/12/26 02:23:59;;;;;;;20.50;9.50;;;5.10;99.90;;;;;;20651705;28;20030;-77
2021/12/26 02:33:59;;;;;;;27.25;9.50;;;5.10;99.90;;;;;;20690971;23;20046;-75
2021/12/26 02:44:03;;;;;;;17.50;8.90;;;5.00;99.90;;;;;;20650966;28;20444;-75
2021/12/26 02:54:08;;;;;;;18.75;7.57;;;5.00;99.90;;;;;;20649036;28;20106;-75
2021/12/26 03:04:09;;;;;;;11.23;5.78;;;5.10;99.90;;;;;;20648257;28;20492;-75
2021/12/26 03:14:10;;;;;;;11.40;5.15;;;5.10;99.90;;;;;;20647717;28;20124;-76
2021/12/26 03:24:11;;;;;;;10.85;5.43;;;4.90;99.90;;;;;;20646853;28;20108;-75
2021/12/26 03:34:12;;;;;;;20.33;8.93;;;4.90;99.90;;;;;;20645887;28;20113;-75
2021/12/26 03:44:14;;;;;;;15.38;7.78;;;4.90;99.90;;;;;;20645525;28;20065;-76
2021/12/26 03:54:15;;;;;;;16.50;7.00;;;4.90;99.90;;;;;;20645041;28;20061;-76
2021/12/26 04:04:16;;;;;;;12.13;5.82;;;5.00;99.90;;;;;;20644590;28;20099;-76
2021/12/26 04:14:17;;;;;;;16.70;6.28;;;4.90;99.90;;;;;;20644240;28;20121;-74
2021/12/26 04:24:18;;;;;;;;;;;4.90;99.90;;;;;;20644412;28;20507;-75
2021/12/26 04:34:19;;;;;;;22.15;8.13;;;4.90;99.90;;;;;;20645636;28;19918;-75
2021/12/26 04:44:23;;;;;;;15.65;6.13;;;4.90;99.90;;;;;;20659085;28;20408;-75
2021/12/26 04:54:44;;;;;;;24.10;9.25;;;4.70;99.90;;;;;;20675529;28;20035;-76
2021/12/26 05:04:45;;;;;;;23.33;9.52;;;4.80;99.90;;;;;;20657588;28;20475;-76
2021/12/26 05:14:46;;;;;;;17.75;7.60;;;4.80;99.90;;;;;;20656677;28;20046;-75
2021/12/26 05:24:48;;;;;;;17.37;7.03;;;4.90;99.90;;;;;;20673412;28;20042;-75
2021/12/26 05:34:50;;;;;;;17.27;7.40;;;4.80;99.90;;;;;;20654971;28;20034;-75
2021/12/26 05:44:51;;;;;;;10.73;5.32;;;4.80;99.90;;;;;;20653213;28;20057;-75
2021/12/26 05:54:53;;;;;;;24.58;10.55;;;4.70;99.90;;;;;;20653792;28;20523;-75
2021/12/26 06:04:54;;;;;;;17.83;8.30;;;4.70;99.90;;;;;;20653022;28;20500;-75
2021/12/26 06:14:55;;;;;;;22.38;9.43;;;4.80;99.90;;;;;;20652171;28;20034;-75
2021/12/26 06:24:55;;;;;;;20.50;9.85;;;4.80;99.90;;;;;;20651784;28;20030;-75
2021/12/26 06:35:04;;;;;;;16.10;6.72;;;4.90;99.90;;;;;;20650358;28;20037;-75
2021/12/26 06:45:24;;;;;;;15.95;8.15;;;4.90;99.90;;;;;;20667283;28;20473;-75
2021/12/26 06:55:45;;;;;;;16.80;7.70;;;4.80;99.90;;;;;;20645284;28;20401;-75
2021/12/26 07:05:46;;;;;;;16.17;7.20;;;4.80;99.90;;;;;;20665669;28;20377;-74
2021/12/26 07:15:52;;;;;;;12.07;5.55;;;4.80;99.90;;;;;;20647554;28;20480;-76
2021/12/26 07:25:53;;;;;;;14.43;5.82;;;4.80;99.90;;;;;;20646674;28;20054;-75
2021/12/26 07:35:55;;;;;;;16.15;6.55;;;4.80;99.90;;;;;;20629092;28;20030;-75
2021/12/26 07:46:13;;;;;;;14.63;7.68;;;4.80;99.90;;;;;;20628648;28;20037;-75
2021/12/26 07:56:14;;;;;;;11.48;5.75;;;5.00;99.90;;;;;;20641613;28;20034;-74
2021/12/26 08:06:34;;;;;;;11.65;4.88;;;5.00;99.90;;;;;;20659579;28;20061;-76
2021/12/26 08:16:35;;;;;;;;;;;5.00;99.90;;;;;;20653810;28;20128;-75
2021/12/26 08:26:36;;;;;;;11.93;5.13;;;4.90;99.90;;;;;;20655021;28;19957;-73
2021/12/26 08:36:36;;;;;;;13.20;6.45;;;4.90;99.90;;;;;;20654845;23;1213323;-77
2021/12/26 08:46:38;;;;;;;20.10;9.25;;;5.20;99.90;;;;;;20684025;28;20026;-77
2021/12/26 08:56:40;;;;;;;18.60;8.82;;;5.30;99.90;;;;;;20697123;28;20042;-79
2021/12/26 09:06:41;;;;;;;22.85;10.90;;;5.40;99.90;;;;;;20724690;28;20030;-78
2021/12/26 09:16:42;;;;;;;23.63;9.60;;;5.40;99.90;;;;;;20734587;28;20043;-79
2021/12/26 09:26:42;;;;;;;17.50;7.50;;;5.40;99.90;;;;;;20704234;28;20035;-79
2021/12/26 09:36:44;;;;;;;16.63;8.47;;;5.60;99.90;;;;;;20677676;28;20034;-78
2021/12/26 09:46:45;;;;;;;19.30;9.50;;;6.10;99.90;;;;;;20680510;28;20106;-76
2021/12/26 09:56:46;;;;;;;26.90;14.25;;;6.40;99.90;;;;;;20649533;28;20686;-77
2021/12/26 10:06:50;;;;;;;29.83;15.48;;;6.50;99.90;;;;;;20642362;28;20504;-77
2021/12/26 10:16:54;;;;;;;29.73;15.18;;;6.50;99.90;;;;;;20671750;28;20038;-77
2021/12/26 10:27:00;;;;;;;28.38;15.38;;;6.50;99.90;;;;;;20678473;28;20033;-78
2021/12/26 10:37:04;;;;;;;27.15;14.73;;;7.00;99.90;;;;;;20682886;28;20056;-78
2021/12/26 10:47:09;;;;;;;17.58;11.05;;;8.90;99.90;;;;;;20654873;28;20028;-78
2021/12/26 10:57:13;;;;;;;17.65;11.57;;;8.60;99.90;;;;;;20609495;28;20039;-79
2021/12/26 11:07:17;;;;;;;18.67;11.15;;;8.00;99.90;;;;;;20606760;28;20450;-77
2021/12/26 11:17:36;;;;;;;21.63;12.75;;;7.70;99.90;;;;;;20614342;28;20065;-77
2021/12/26 11:27:37;;;;;;;25.65;11.73;;;7.30;99.90;;;;;;20583782;28;20045;-78
2021/12/26 11:37:39;;;;;;;20.73;11.90;;;7.50;99.90;;;;;;20600355;28;20568;-78
2021/12/26 11:48:42;;;;;;;16.05;10.55;;;8.20;99.90;;;;;;20604992;28;20047;-78
2021/12/26 11:59:12;;;;;;;16.88;10.27;;;8.70;99.90;;;;;;20551377;28;20043;-77
2021/12/26 12:09:46;;;;;;;20.73;12.32;;;8.50;99.90;;;;;;20661119;28;20533;-78
2021/12/26 12:20:06;;;;;;;12.32;9.07;;;8.50;99.90;;;;;;20659605;28;20038;-77
2021/12/26 12:30:07;;;;;;;12.15;8.82;;;8.00;99.90;;;;;;20636097;28;20121;-77
2021/12/26 12:40:28;;;;;;;15.63;9.35;;;7.90;99.90;;;;;;20612231;28;20524;-77
2021/12/26 12:50:32;;;;;;;16.10;10.13;;;7.50;99.90;;;;;;20622563;28;20110;-78
2021/12/26 13:00:33;;;;;;;15.68;10.15;;;7.40;99.90;;;;;;20647605;28;20117;-78
2021/12/26 13:10:35;;;;;;;18.33;10.17;;;7.20;99.90;;;;;;20673891;28;20027;-77
2021/12/26 13:20:36;;;;;;;17.80;10.77;;;7.10;99.90;;;;;;20659242;28;20053;-77
2021/12/26 13:30:42;;;;;;;17.73;10.30;;;7.20;99.90;;;;;;20711162;28;20037;-79
2021/12/26 13:40:46;;;;;;;16.70;10.48;;;7.30;99.90;;;;;;20655819;28;20038;-78
2021/12/26 13:50:47;;;;;;;18.30;11.32;;;7.40;99.90;;;;;;20682102;28;20034;-78
2021/12/26 14:00:55;;;;;;;22.43;13.53;;;7.30;99.90;;;;;;20655970;28;20453;-79
2021/12/26 14:11:01;;;;;;;28.13;15.75;;;7.10;99.90;;;;;;20689576;28;20069;-79
2021/12/26 14:21:09;;;;;;;25.98;13.55;;;7.00;99.90;;;;;;20690264;28;20033;-79
2021/12/26 14:31:39;;;;;;;26.85;16.08;;;7.00;99.90;;;;;;20659974;28;20043;-78
2021/12/26 14:41:47;;;;;;;20.60;12.60;;;7.10;99.90;;;;;;20718860;23;20062;-79
2021/12/26 14:52:00;;;;;;;23.45;13.15;;;7.20;99.90;;;;;;20673633;28;20613;-79
2021/12/26 15:02:19;;;;;;;24.35;14.15;;;7.10;99.90;;;;;;20656931;28;20027;-78
2021/12/26 15:12:21;;;;;;;31.55;16.35;;;6.90;99.90;;;;;;20627047;28;20124;-78
2021/12/26 15:22:35;;;;;;;24.25;13.25;;;6.80;99.90;;;;;;20597010;28;20039;-78
2021/12/26 15:32:36;;;;;;;21.65;13.18;;;6.80;99.90;;;;;;20601832;28;20385;-78
2021/12/26 15:42:37;;;;;;;19.90;12.43;;;6.80;99.90;;;;;;20662174;28;20054;-78
2021/12/26 15:52:38;;;;;;;24.47;14.50;;;6.90;99.90;;;;;;20698030;28;20030;-78
2021/12/26 16:02:39;;;;;;;26.87;13.73;;;6.70;99.90;;;;;;20666057;28;20062;-78
2021/12/26 16:12:40;;;;;;;20.03;10.50;;;6.50;99.90;;;;;;20621638;28;20030;-78
2021/12/26 16:22:42;;;;;;;16.03;8.53;;;6.30;99.90;;;;;;20648690;28;20130;-79
2021/12/26 16:32:43;;;;;;;16.27;8.50;;;6.10;99.90;;;;;;20669122;28;20597;-77
2021/12/26 16:42:44;;;;;;;17.48;9.90;;;6.30;99.90;;;;;;20668167;28;20041;-78
2021/12/26 16:52:46;;;;;;;27.40;14.15;;;6.30;99.90;;;;;;20654377;28;20113;-78
2021/12/26 17:02:47;;;;;;;12.25;7.40;;;6.30;99.90;;;;;;20632492;28;20504;-78
2021/12/26 17:12:48;;;;;;;20.95;10.32;;;6.20;99.90;;;;;;20650956;28;20507;-78
2021/12/26 17:22:49;;;;;;;16.40;8.75;;;6.30;99.90;;;;;;20620243;28;20034;-78
2021/12/26 17:32:53;;;;;;;15.20;6.40;;;6.20;99.90;;;;;;20588067;28;20039;-78
2021/12/26 17:42:54;;;;;;;13.23;7.20;;;6.20;99.90;;;;;;20613695;28;20041;-78
2021/12/26 17:52:56;;;;;;;;;;;6.20;99.90;;;;;;20605297;28;20046;-78
2021/12/26 18:02:57;;;;;;;16.10;7.10;;;6.20;99.90;;;;;;20592200;28;19910;-78
2021/12/26 18:12:58;;;;;;;11.32;6.07;;;6.20;99.90;;;;;;20607250;28;20122;-78
2021/12/26 18:23:00;;;;;;;13.98;7.60;;;6.00;99.90;;;;;;20607986;28;20042;-78
2021/12/26 18:33:01;;;;;;;14.20;7.50;;;6.10;99.90;;;;;;20685053;28;20038;-78
2021/12/26 18:43:04;;;;;;;11.10;6.17;;;6.00;99.90;;;;;;20668508;28;20085;-78
2021/12/26 18:53:06;;;;;;;11.27;6.25;;;6.00;99.90;;;;;;20665839;28;20301;-78
2021/12/26 19:03:08;;;;;;;21.02;8.68;;;6.00;99.90;;;;;;20668116;28;20034;-78
2021/12/26 19:13:09;;;;;;;18.08;7.22;;;6.00;99.90;;;;;;20664199;28;20708;-79
2021/12/26 19:23:10;;;;;;;16.70;7.47;;;5.90;99.90;;;;;;20637340;28;20026;-78
2021/12/26 19:33:11;;;;;;;12.25;6.72;;;5.90;99.90;;;;;;20652899;28;20508;-78
2021/12/26 19:43:14;;;;;;;14.13;6.32;;;5.90;99.90;;;;;;20653524;28;20056;-77
2021/12/26 19:53:15;;;;;;;19.83;7.32;;;5.60;99.90;;;;;;20635936;28;20073;-77
2021/12/26 20:03:16;;;;;;;14.95;7.78;;;5.80;99.90;;;;;;20635589;28;20039;-78
2021/12/26 20:13:26;;;;;;;19.80;10.73;;;5.80;99.90;;;;;;20627332;28;20070;-77
2021/12/26 20:23:27;;;;;;;13.02;7.03;;;6.00;99.90;;;;;;20661634;28;20500;-78
2021/12/26 20:33:29;;;;;;;11.65;6.47;;;6.00;99.90;;;;;;20660715;28;20065;-78
2021/12/26 20:43:29;;;;;;;9.75;5.80;;;5.90;99.90;;;;;;20627823;23;20441;-75
2021/12/26 20:53:30;;;;;;;12.67;6.47;;;5.80;99.90;;;;;;20557236;28;20035;-75
2021/12/26 21:03:31;;;;;;;8.93;5.63;;;5.80;99.90;;;;;;20603301;28;20037;-75
2021/12/26 21:13:33;;;;;;;13.83;7.53;;;5.90;99.90;;;;;;20632675;28;20043;-74
2021/12/26 21:23:34;;;;;;;9.27;5.00;;;5.80;99.90;;;;;;20571253;28;20030;-75
2021/12/26 21:33:35;;;;;;;12.90;6.22;;;5.60;99.90;;;;;;20572760;28;20030;-75
2021/12/26 21:43:36;;;;;;;11.57;6.37;;;5.60;99.90;;;;;;20570633;28;20145;-75
2021/12/26 21:53:37;;;;;;;11.35;6.07;;;5.60;99.90;;;;;;20571587;28;20290;-74
2021/12/26 22:03:38;;;;;;;18.87;8.27;;;5.60;99.90;;;;;;20615458;28;20077;-75
2021/12/26 22:13:39;;;;;;;11.55;7.00;;;5.70;99.90;;;;;;20650328;28;20077;-75
2021/12/26 22:23:40;;;;;;;15.77;8.30;;;5.70;99.90;;;;;;20643107;28;20035;-75
2021/12/26 22:33:41;;;;;;;16.83;9.93;;;5.80;99.90;;;;;;20612416;28;20034;-75
2021/12/26 22:43:41;;;;;;;12.67;5.93;;;5.70;99.90;;;;;;20647721;28;20049;-75
2021/12/26 22:53:43;;;;;;;13.63;6.03;;;5.50;99.90;;;;;;20629799;28;20493;-75
2021/12/26 23:03:44;;;;;;;11.70;6.63;;;5.50;99.90;;;;;;20646143;28;20515;-75
2021/12/26 23:13:45;;;;;;;12.60;6.53;;;5.60;99.90;;;;;;20645938;28;20034;-75
2021/12/26 23:23:46;;;;;;;18.98;8.93;;;5.30;99.90;;;;;;20620149;28;20073;-75
2021/12/26 23:33:47;;;;;;;14.77;7.75;;;5.40;99.90;;;;;;20606050;28;20089;-75
2021/12/26 23:43:50;;;;;;;16.52;6.78;;;5.20;99.90;;;;;;20643752;28;20034;-75
2021/12/26 23:53:54;;;;;;;16.13;7.63;;;5.30;99.90;;;;;;20625509;28;20172;-75
